sensor_id;sensor_type;location;lat;lon;timestamp;temperature;humidity
6843;DHT22;3460;52.028;8.916;2022-08-16T00:00:40;18.20;99.90
6843;DHT22;3460;52.028;8.916;2022-08-16T00:03:08;18.20;99.90
6843;DHT22;3460;52.028;8.916;2022-08-16T00:05:35;18.20;99.90
6843;DHT22;3460;52.028;8.916;2022-08-16T00:08:03;18.20;99.90
6843;DHT22;3460;52.028;8.916;2022-08-16T00:10:31;18.10;99.90
6843;DHT22;3460;52.028;8.916;2022-08-16T00:12:58;18.10;99.90
6843;DHT22;3460;52.028;8.916;2022-08-16T00:15:30;18.00;99.90
6843;DHT22;3460;52.028;8.916;2022-08-16T00:17:57;17.90;99.90
6843;DHT22;3460;52.028;8.916;2022-08-16T00:20:24;17.90;99.90
6843;DHT22;3460;52.028;8.916;2022-08-16T00:22:51;17.80;99.90
6843;DHT22;3460;52.028;8.916;2022-08-16T00:25:20;17.60;99.90
6843;DHT22;3460;52.028;8.916;2022-08-16T00:27:47;17.60;99.90
6843;DHT22;3460;52.028;8.916;2022-08-16T00:30:15;17.40;99.90
6843;DHT22;3460;52.028;8.916;2022-08-16T00:32:45;17.20;99.90
6843;DHT22;3460;52.028;8.916;2022-08-16T00:35:14;17.20;99.90
6843;DHT22;3460;52.028;8.916;2022-08-16T00:37:42;17.30;99.90
6843;DHT22;3460;52.028;8.916;2022-08-16T00:40:10;17.30;99.90
6843;DHT22;3460;52.028;8.916;2022-08-16T00:42:37;17.30;99.90
6843;DHT22;3460;52.028;8.916;2022-08-16T00:45:08;17.40;99.90
6843;DHT22;3460;52.028;8.916;2022-08-16T00:47:44;17.50;99.90
6843;DHT22;3460;52.028;8.916;2022-08-16T00:50:13;17.60;99.90
6843;DHT22;3460;52.028;8.916;2022-08-16T00:52:40;17.70;99.90
6843;DHT22;3460;52.028;8.916;2022-08-16T00:55:07;17.70;99.90
6843;DHT22;3460;52.028;8.916;2022-08-16T00:57:34;17.80;99.90
6843;DHT22;3460;52.028;8.916;2022-08-16T01:00:03;17.90;99.90
6843;DHT22;3460;52.028;8.916;2022-08-16T01:02:30;17.90;99.90
6843;DHT22;3460;52.028;8.916;2022-08-16T01:04:57;17.90;99.90
6843;DHT22;3460;52.028;8.916;2022-08-16T01:07:25;17.90;99.90
6843;DHT22;3460;52.028;8.916;2022-08-16T01:09:53;17.90;99.90
6843;DHT22;3460;52.028;8.916;2022-08-16T01:12:19;17.90;99.90
6843;DHT22;3460;52.028;8.916;2022-08-16T01:14:50;17.90;99.90
6843;DHT22;3460;52.028;8.916;2022-08-16T01:17:19;17.90;99.90
6843;DHT22;3460;52.028;8.916;2022-08-16T01:19:50;17.90;99.90
6843;DHT22;3460;52.028;8.916;2022-08-16T01:22:24;17.80;99.90
6843;DHT22;3460;52.028;8.916;2022-08-16T01:24:57;17.80;99.90
6843;DHT22;3460;52.028;8.916;2022-08-16T01:27:28;17.80;99.90
6843;DHT22;3460;52.028;8.916;2022-08-16T01:30:00;17.80;99.90
6843;DHT22;3460;52.028;8.916;2022-08-16T01:32:29;17.70;99.90
6843;DHT22;3460;52.028;8.916;2022-08-16T01:34:56;17.80;99.90
6843;DHT22;3460;52.028;8.916;2022-08-16T01:37:23;17.60;99.90
6843;DHT22;3460;52.028;8.916;2022-08-16T01:39:49;17.60;99.90
6843;DHT22;3460;52.028;8.916;2022-08-16T01:42:17;17.50;99.90
6843;DHT22;3460;52.028;8.916;2022-08-16T01:44:44;17.50;99.90
6843;DHT22;3460;52.028;8.916;2022-08-16T01:47:11;17.40;99.90
6843;DHT22;3460;52.028;8.916;2022-08-16T01:49:41;17.40;99.90
6843;DHT22;3460;52.028;8.916;2022-08-16T01:52:10;17.50;99.90
6843;DHT22;3460;52.028;8.916;2022-08-16T01:54:38;17.50;99.90
6843;DHT22;3460;52.028;8.916;2022-08-16T01:57:06;17.50;99.90
6843;DHT22;3460;52.028;8.916;2022-08-16T01:59:35;17.50;99.90
6843;DHT22;3460;52.028;8.916;2022-08-16T02:02:03;17.50;99.90
6843;DHT22;3460;52.028;8.916;2022-08-16T02:04:31;17.50;99.90
6843;DHT22;3460;52.028;8.916;2022-08-16T02:06:59;17.50;99.90
6843;DHT22;3460;52.028;8.916;2022-08-16T02:09:28;17.60;99.90
6843;DHT22;3460;52.028;8.916;2022-08-16T02:11:57;17.50;99.90
6843;DHT22;3460;52.028;8.916;2022-08-16T02:14:27;17.50;99.90
6843;DHT22;3460;52.028;8.916;2022-08-16T02:16:56;17.40;99.90
6843;DHT22;3460;52.028;8.916;2022-08-16T02:19:25;17.50;99.90
6843;DHT22;3460;52.028;8.916;2022-08-16T02:21:53;17.50;99.90
6843;DHT22;3460;52.028;8.916;2022-08-16T02:24:21;17.40;99.90
6843;DHT22;3460;52.028;8.916;2022-08-16T02:26:48;17.50;99.90
6843;DHT22;3460;52.028;8.916;2022-08-16T02:29:17;17.50;99.90
6843;DHT22;3460;52.028;8.916;2022-08-16T02:31:44;17.40;99.90
6843;DHT22;3460;52.028;8.916;2022-08-16T02:34:12;17.30;99.90
6843;DHT22;3460;52.028;8.916;2022-08-16T02:36:40;17.20;99.90
6843;DHT22;3460;52.028;8.916;2022-08-16T02:39:09;17.20;99.90
6843;DHT22;3460;52.028;8.916;2022-08-16T02:41:37;17.10;99.90
6843;DHT22;3460;52.028;8.916;2022-08-16T02:44:06;17.20;99.90
6843;DHT22;3460;52.028;8.916;2022-08-16T02:46:33;17.20;99.90
6843;DHT22;3460;52.028;8.916;2022-08-16T02:49:00;17.30;99.90
6843;DHT22;3460;52.028;8.916;2022-08-16T02:51:28;17.20;99.90
6843;DHT22;3460;52.028;8.916;2022-08-16T02:53:54;17.20;99.90
6843;DHT22;3460;52.028;8.916;2022-08-16T02:56:21;17.10;99.90
6843;DHT22;3460;52.028;8.916;2022-08-16T02:58:50;17.20;99.90
6843;DHT22;3460;52.028;8.916;2022-08-16T03:01:20;17.10;99.90
6843;DHT22;3460;52.028;8.916;2022-08-16T03:03:48;17.10;99.90
6843;DHT22;3460;52.028;8.916;2022-08-16T03:06:15;17.00;99.90
6843;DHT22;3460;52.028;8.916;2022-08-16T03:08:47;17.00;99.90
6843;DHT22;3460;52.028;8.916;2022-08-16T03:11:14;17.00;99.90
6843;DHT22;3460;52.028;8.916;2022-08-16T03:13:42;17.00;99.90
6843;DHT22;3460;52.028;8.916;2022-08-16T03:16:09;17.10;99.90
6843;DHT22;3460;52.028;8.916;2022-08-16T03:18:37;17.10;99.90
6843;DHT22;3460;52.028;8.916;2022-08-16T03:21:04;17.10;99.90
6843;DHT22;3460;52.028;8.916;2022-08-16T03:23:32;17.00;99.90
6843;DHT22;3460;52.028;8.916;2022-08-16T03:26:00;16.90;99.90
6843;DHT22;3460;52.028;8.916;2022-08-16T03:28:26;16.90;99.90
6843;DHT22;3460;52.028;8.916;2022-08-16T03:30:53;16.80;99.90
6843;DHT22;3460;52.028;8.916;2022-08-16T03:33:20;16.80;99.90
6843;DHT22;3460;52.028;8.916;2022-08-16T03:35:46;16.80;99.90
6843;DHT22;3460;52.028;8.916;2022-08-16T03:38:15;16.70;99.90
6843;DHT22;3460;52.028;8.916;2022-08-16T03:40:42;16.70;99.90
6843;DHT22;3460;52.028;8.916;2022-08-16T03:43:11;16.80;99.90
6843;DHT22;3460;52.028;8.916;2022-08-16T03:45:39;16.70;99.90
6843;DHT22;3460;52.028;8.916;2022-08-16T03:48:08;16.70;99.90
6843;DHT22;3460;52.028;8.916;2022-08-16T03:50:35;16.70;99.90
6843;DHT22;3460;52.028;8.916;2022-08-16T03:53:03;16.70;99.90
6843;DHT22;3460;52.028;8.916;2022-08-16T03:55:30;16.70;99.90
6843;DHT22;3460;52.028;8.916;2022-08-16T03:57:57;16.70;99.90
6843;DHT22;3460;52.028;8.916;2022-08-16T04:00:28;16.70;99.90
6843;DHT22;3460;52.028;8.916;2022-08-16T04:02:56;16.60;99.90
6843;DHT22;3460;52.028;8.916;2022-08-16T04:05:24;16.60;99.90
6843;DHT22;3460;52.028;8.916;2022-08-16T04:07:50;16.70;99.90
6843;DHT22;3460;52.028;8.916;2022-08-16T04:10:17;16.60;99.90
6843;DHT22;3460;52.028;8.916;2022-08-16T04:12:44;16.50;99.90
6843;DHT22;3460;52.028;8.916;2022-08-16T04:15:13;16.60;99.90
6843;DHT22;3460;52.028;8.916;2022-08-16T04:17:42;16.50;99.90
6843;DHT22;3460;52.028;8.916;2022-08-16T04:20:10;16.60;99.90
6843;DHT22;3460;52.028;8.916;2022-08-16T04:22:38;16.60;99.90
6843;DHT22;3460;52.028;8.916;2022-08-16T04:25:07;16.70;99.90
6843;DHT22;3460;52.028;8.916;2022-08-16T04:27:33;16.70;99.90
6843;DHT22;3460;52.028;8.916;2022-08-16T04:30:03;16.70;99.90
6843;DHT22;3460;52.028;8.916;2022-08-16T04:32:31;16.70;99.90
6843;DHT22;3460;52.028;8.916;2022-08-16T04:34:59;16.60;99.90
6843;DHT22;3460;52.028;8.916;2022-08-16T04:37:25;16.60;99.90
6843;DHT22;3460;52.028;8.916;2022-08-16T04:39:52;16.50;99.90
6843;DHT22;3460;52.028;8.916;2022-08-16T04:42:19;16.50;99.90
6843;DHT22;3460;52.028;8.916;2022-08-16T04:44:46;16.50;99.90
6843;DHT22;3460;52.028;8.916;2022-08-16T04:47:13;16.50;99.90
6843;DHT22;3460;52.028;8.916;2022-08-16T04:49:40;16.50;99.90
6843;DHT22;3460;52.028;8.916;2022-08-16T04:52:08;16.60;99.90
6843;DHT22;3460;52.028;8.916;2022-08-16T04:54:35;16.60;99.90
6843;DHT22;3460;52.028;8.916;2022-08-16T04:57:01;16.60;99.90
6843;DHT22;3460;52.028;8.916;2022-08-16T04:59:28;16.70;99.90
6843;DHT22;3460;52.028;8.916;2022-08-16T05:01:55;16.70;99.90
6843;DHT22;3460;52.028;8.916;2022-08-16T05:04:21;16.80;99.90
6843;DHT22;3460;52.028;8.916;2022-08-16T05:06:48;16.80;99.90
6843;DHT22;3460;52.028;8.916;2022-08-16T05:09:16;17.00;99.90
6843;DHT22;3460;52.028;8.916;2022-08-16T05:11:43;17.10;99.90
6843;DHT22;3460;52.028;8.916;2022-08-16T05:14:11;17.20;99.90
6843;DHT22;3460;52.028;8.916;2022-08-16T05:16:37;17.20;99.90
6843;DHT22;3460;52.028;8.916;2022-08-16T05:19:04;17.40;99.90
6843;DHT22;3460;52.028;8.916;2022-08-16T05:21:32;17.50;99.90
6843;DHT22;3460;52.028;8.916;2022-08-16T05:24:00;17.60;99.90
6843;DHT22;3460;52.028;8.916;2022-08-16T05:26:30;17.70;99.90
6843;DHT22;3460;52.028;8.916;2022-08-16T05:28:58;17.80;99.90
6843;DHT22;3460;52.028;8.916;2022-08-16T05:31:26;18.00;99.90
6843;DHT22;3460;52.028;8.916;2022-08-16T05:33:52;18.10;99.90
6843;DHT22;3460;52.028;8.916;2022-08-16T05:36:19;18.30;99.90
6843;DHT22;3460;52.028;8.916;2022-08-16T05:38:46;18.30;99.90
6843;DHT22;3460;52.028;8.916;2022-08-16T05:41:13;18.40;99.90
6843;DHT22;3460;52.028;8.916;2022-08-16T05:43:41;18.30;99.90
6843;DHT22;3460;52.028;8.916;2022-08-16T05:46:08;18.30;99.90
6843;DHT22;3460;52.028;8.916;2022-08-16T05:48:35;18.40;99.90
6843;DHT22;3460;52.028;8.916;2022-08-16T05:51:02;18.50;99.90
6843;DHT22;3460;52.028;8.916;2022-08-16T05:53:28;18.50;99.90
6843;DHT22;3460;52.028;8.916;2022-08-16T05:55:55;18.50;99.90
6843;DHT22;3460;52.028;8.916;2022-08-16T05:58:22;18.60;99.90
6843;DHT22;3460;52.028;8.916;2022-08-16T06:00:49;18.70;99.90
6843;DHT22;3460;52.028;8.916;2022-08-16T06:03:16;18.70;99.90
6843;DHT22;3460;52.028;8.916;2022-08-16T06:05:43;18.70;99.90
6843;DHT22;3460;52.028;8.916;2022-08-16T06:08:09;18.70;99.90
6843;DHT22;3460;52.028;8.916;2022-08-16T06:10:36;18.60;99.90
6843;DHT22;3460;52.028;8.916;2022-08-16T06:13:03;18.60;99.90
6843;DHT22;3460;52.028;8.916;2022-08-16T06:15:30;18.70;99.90
6843;DHT22;3460;52.028;8.916;2022-08-16T06:17:57;18.80;99.90
6843;DHT22;3460;52.028;8.916;2022-08-16T06:20:26;18.90;99.90
6843;DHT22;3460;52.028;8.916;2022-08-16T06:22:54;19.10;99.90
6843;DHT22;3460;52.028;8.916;2022-08-16T06:25:21;19.10;99.90
6843;DHT22;3460;52.028;8.916;2022-08-16T06:27:50;19.20;99.90
6843;DHT22;3460;52.028;8.916;2022-08-16T06:30:17;19.30;99.90
6843;DHT22;3460;52.028;8.916;2022-08-16T06:32:44;19.40;99.90
6843;DHT22;3460;52.028;8.916;2022-08-16T06:35:13;19.50;99.90
6843;DHT22;3460;52.028;8.916;2022-08-16T06:37:40;19.50;99.90
6843;DHT22;3460;52.028;8.916;2022-08-16T06:40:08;19.50;99.90
6843;DHT22;3460;52.028;8.916;2022-08-16T06:42:35;19.60;99.90
6843;DHT22;3460;52.028;8.916;2022-08-16T06:45:03;19.70;99.90
6843;DHT22;3460;52.028;8.916;2022-08-16T06:47:29;19.70;99.90
6843;DHT22;3460;52.028;8.916;2022-08-16T06:49:56;19.80;99.90
6843;DHT22;3460;52.028;8.916;2022-08-16T06:52:25;19.90;99.90
6843;DHT22;3460;52.028;8.916;2022-08-16T06:54:58;19.90;99.90
6843;DHT22;3460;52.028;8.916;2022-08-16T06:57:25;20.10;99.90
6843;DHT22;3460;52.028;8.916;2022-08-16T06:59:51;20.20;99.90
6843;DHT22;3460;52.028;8.916;2022-08-16T07:02:18;20.30;99.90
6843;DHT22;3460;52.028;8.916;2022-08-16T07:04:45;20.40;99.90
6843;DHT22;3460;52.028;8.916;2022-08-16T07:07:11;20.40;99.90
6843;DHT22;3460;52.028;8.916;2022-08-16T07:09:39;20.50;99.90
6843;DHT22;3460;52.028;8.916;2022-08-16T07:12:06;20.60;99.90
6843;DHT22;3460;52.028;8.916;2022-08-16T07:14:33;20.80;99.90
6843;DHT22;3460;52.028;8.916;2022-08-16T07:17:00;20.90;99.90
6843;DHT22;3460;52.028;8.916;2022-08-16T07:19:29;21.10;99.90
6843;DHT22;3460;52.028;8.916;2022-08-16T07:21:57;21.10;99.90
6843;DHT22;3460;52.028;8.916;2022-08-16T07:24:26;21.30;99.90
6843;DHT22;3460;52.028;8.916;2022-08-16T07:26:55;21.40;99.90
6843;DHT22;3460;52.028;8.916;2022-08-16T07:29:21;21.50;99.90
6843;DHT22;3460;52.028;8.916;2022-08-16T07:31:48;21.50;99.90
6843;DHT22;3460;52.028;8.916;2022-08-16T07:34:15;21.60;99.90
6843;DHT22;3460;52.028;8.916;2022-08-16T07:36:42;21.60;99.90
6843;DHT22;3460;52.028;8.916;2022-08-16T07:39:09;21.70;99.90
6843;DHT22;3460;52.028;8.916;2022-08-16T07:41:36;21.70;99.90
6843;DHT22;3460;52.028;8.916;2022-08-16T07:44:04;21.60;99.90
6843;DHT22;3460;52.028;8.916;2022-08-16T07:46:31;21.70;99.90
6843;DHT22;3460;52.028;8.916;2022-08-16T07:48:58;21.80;99.90
6843;DHT22;3460;52.028;8.916;2022-08-16T07:51:25;21.90;99.90
6843;DHT22;3460;52.028;8.916;2022-08-16T07:53:51;22.10;99.90
6843;DHT22;3460;52.028;8.916;2022-08-16T07:56:18;22.20;99.90
6843;DHT22;3460;52.028;8.916;2022-08-16T07:58:45;22.30;99.90
6843;DHT22;3460;52.028;8.916;2022-08-16T08:01:13;22.50;99.90
6843;DHT22;3460;52.028;8.916;2022-08-16T08:03:41;22.80;99.90
6843;DHT22;3460;52.028;8.916;2022-08-16T08:06:09;22.90;99.90
6843;DHT22;3460;52.028;8.916;2022-08-16T08:08:36;23.10;99.90
6843;DHT22;3460;52.028;8.916;2022-08-16T08:11:02;23.30;99.90
6843;DHT22;3460;52.028;8.916;2022-08-16T08:13:29;23.40;99.90
6843;DHT22;3460;52.028;8.916;2022-08-16T08:15:56;23.70;99.90
6843;DHT22;3460;52.028;8.916;2022-08-16T08:18:24;23.80;99.90
6843;DHT22;3460;52.028;8.916;2022-08-16T08:20:50;23.90;99.90
6843;DHT22;3460;52.028;8.916;2022-08-16T08:23:17;23.90;99.90
6843;DHT22;3460;52.028;8.916;2022-08-16T08:25:45;24.00;99.90
6843;DHT22;3460;52.028;8.916;2022-08-16T08:28:13;24.30;99.90
6843;DHT22;3460;52.028;8.916;2022-08-16T08:30:40;24.10;99.90
6843;DHT22;3460;52.028;8.916;2022-08-16T08:33:07;23.90;99.90
6843;DHT22;3460;52.028;8.916;2022-08-16T08:35:35;23.80;99.90
6843;DHT22;3460;52.028;8.916;2022-08-16T08:38:02;23.70;99.90
6843;DHT22;3460;52.028;8.916;2022-08-16T08:40:33;23.60;99.90
6843;DHT22;3460;52.028;8.916;2022-08-16T08:43:00;23.70;99.90
6843;DHT22;3460;52.028;8.916;2022-08-16T08:45:27;23.80;99.90
6843;DHT22;3460;52.028;8.916;2022-08-16T08:47:54;24.30;99.90
6843;DHT22;3460;52.028;8.916;2022-08-16T08:50:22;24.30;99.90
6843;DHT22;3460;52.028;8.916;2022-08-16T08:52:50;24.50;99.90
6843;DHT22;3460;52.028;8.916;2022-08-16T08:55:18;24.80;99.90
6843;DHT22;3460;52.028;8.916;2022-08-16T08:57:45;24.60;99.90
6843;DHT22;3460;52.028;8.916;2022-08-16T09:00:14;24.60;99.90
6843;DHT22;3460;52.028;8.916;2022-08-16T09:02:42;24.70;99.90
6843;DHT22;3460;52.028;8.916;2022-08-16T09:05:09;24.90;99.90
6843;DHT22;3460;52.028;8.916;2022-08-16T09:07:37;25.00;99.90
6843;DHT22;3460;52.028;8.916;2022-08-16T09:10:06;25.00;99.90
6843;DHT22;3460;52.028;8.916;2022-08-16T09:12:34;25.20;99.90
6843;DHT22;3460;52.028;8.916;2022-08-16T09:15:00;25.20;99.90
6843;DHT22;3460;52.028;8.916;2022-08-16T09:17:27;25.20;99.90
6843;DHT22;3460;52.028;8.916;2022-08-16T09:19:54;25.10;99.90
6843;DHT22;3460;52.028;8.916;2022-08-16T09:22:21;25.10;99.90
6843;DHT22;3460;52.028;8.916;2022-08-16T09:24:48;25.60;99.90
6843;DHT22;3460;52.028;8.916;2022-08-16T09:27:17;25.70;99.90
6843;DHT22;3460;52.028;8.916;2022-08-16T09:29:44;25.80;99.90
6843;DHT22;3460;52.028;8.916;2022-08-16T09:32:10;25.70;99.90
6843;DHT22;3460;52.028;8.916;2022-08-16T09:34:37;25.90;99.90
6843;DHT22;3460;52.028;8.916;2022-08-16T09:37:04;26.00;99.90
6843;DHT22;3460;52.028;8.916;2022-08-16T09:39:30;25.80;99.90
6843;DHT22;3460;52.028;8.916;2022-08-16T09:41:57;26.10;99.90
6843;DHT22;3460;52.028;8.916;2022-08-16T09:44:26;26.20;99.90
6843;DHT22;3460;52.028;8.916;2022-08-16T09:46:53;26.10;99.90
6843;DHT22;3460;52.028;8.916;2022-08-16T09:49:21;26.40;99.90
6843;DHT22;3460;52.028;8.916;2022-08-16T09:51:48;26.20;99.90
6843;DHT22;3460;52.028;8.916;2022-08-16T09:54:18;26.40;99.90
6843;DHT22;3460;52.028;8.916;2022-08-16T09:56:45;26.20;99.90
6843;DHT22;3460;52.028;8.916;2022-08-16T09:59:12;26.40;99.90
6843;DHT22;3460;52.028;8.916;2022-08-16T10:01:41;26.60;99.90
6843;DHT22;3460;52.028;8.916;2022-08-16T10:04:09;26.70;99.90
6843;DHT22;3460;52.028;8.916;2022-08-16T10:06:36;26.90;99.90
6843;DHT22;3460;52.028;8.916;2022-08-16T10:09:06;26.80;99.90
6843;DHT22;3460;52.028;8.916;2022-08-16T10:11:34;26.90;99.90
6843;DHT22;3460;52.028;8.916;2022-08-16T10:14:19;26.90;99.90
6843;DHT22;3460;52.028;8.916;2022-08-16T10:16:47;26.80;99.90
6843;DHT22;3460;52.028;8.916;2022-08-16T10:19:14;26.70;99.90
6843;DHT22;3460;52.028;8.916;2022-08-16T10:21:42;26.80;99.90
6843;DHT22;3460;52.028;8.916;2022-08-16T10:24:09;26.90;99.90
6843;DHT22;3460;52.028;8.916;2022-08-16T10:26:36;26.90;99.90
6843;DHT22;3460;52.028;8.916;2022-08-16T10:29:04;27.20;99.90
6843;DHT22;3460;52.028;8.916;2022-08-16T10:31:31;27.10;99.90
6843;DHT22;3460;52.028;8.916;2022-08-16T10:33:59;27.10;99.90
6843;DHT22;3460;52.028;8.916;2022-08-16T10:36:26;27.10;99.90
6843;DHT22;3460;52.028;8.916;2022-08-16T10:38:52;26.90;99.90
6843;DHT22;3460;52.028;8.916;2022-08-16T10:41:19;27.00;99.90
6843;DHT22;3460;52.028;8.916;2022-08-16T10:43:46;27.30;99.90
6843;DHT22;3460;52.028;8.916;2022-08-16T10:46:13;27.30;99.90
6843;DHT22;3460;52.028;8.916;2022-08-16T10:48:42;27.30;99.90
6843;DHT22;3460;52.028;8.916;2022-08-16T10:51:11;27.40;99.90
6843;DHT22;3460;52.028;8.916;2022-08-16T10:53:38;27.40;99.90
6843;DHT22;3460;52.028;8.916;2022-08-16T10:56:07;27.60;99.90
6843;DHT22;3460;52.028;8.916;2022-08-16T10:58:34;27.50;99.90
6843;DHT22;3460;52.028;8.916;2022-08-16T11:01:02;27.50;99.90
6843;DHT22;3460;52.028;8.916;2022-08-16T11:03:30;27.60;99.90
6843;DHT22;3460;52.028;8.916;2022-08-16T11:05:58;27.70;99.90
6843;DHT22;3460;52.028;8.916;2022-08-16T11:08:26;27.80;99.90
6843;DHT22;3460;52.028;8.916;2022-08-16T11:10:52;28.00;99.90
6843;DHT22;3460;52.028;8.916;2022-08-16T11:13:21;28.10;99.90
6843;DHT22;3460;52.028;8.916;2022-08-16T11:15:50;28.10;99.90
6843;DHT22;3460;52.028;8.916;2022-08-16T11:18:16;28.00;99.90
6843;DHT22;3460;52.028;8.916;2022-08-16T11:20:44;28.00;99.90
6843;DHT22;3460;52.028;8.916;2022-08-16T11:23:12;28.00;99.90
6843;DHT22;3460;52.028;8.916;2022-08-16T11:25:40;27.90;99.90
6843;DHT22;3460;52.028;8.916;2022-08-16T11:28:07;27.70;99.90
6843;DHT22;3460;52.028;8.916;2022-08-16T11:30:35;27.50;99.90
6843;DHT22;3460;52.028;8.916;2022-08-16T11:33:02;27.30;99.90
6843;DHT22;3460;52.028;8.916;2022-08-16T11:35:31;27.30;99.90
6843;DHT22;3460;52.028;8.916;2022-08-16T11:38:00;27.60;99.90
6843;DHT22;3460;52.028;8.916;2022-08-16T11:40:29;27.80;99.90
6843;DHT22;3460;52.028;8.916;2022-08-16T11:42:58;27.90;99.90
6843;DHT22;3460;52.028;8.916;2022-08-16T11:45:25;27.90;99.90
6843;DHT22;3460;52.028;8.916;2022-08-16T11:47:52;28.10;99.90
6843;DHT22;3460;52.028;8.916;2022-08-16T11:50:20;28.30;99.90
6843;DHT22;3460;52.028;8.916;2022-08-16T11:52:49;28.30;99.90
6843;DHT22;3460;52.028;8.916;2022-08-16T11:55:16;28.30;99.90
6843;DHT22;3460;52.028;8.916;2022-08-16T11:57:42;28.20;99.90
6843;DHT22;3460;52.028;8.916;2022-08-16T12:00:13;28.30;99.90
6843;DHT22;3460;52.028;8.916;2022-08-16T12:02:41;28.50;99.90
6843;DHT22;3460;52.028;8.916;2022-08-16T12:05:10;28.50;99.90
6843;DHT22;3460;52.028;8.916;2022-08-16T12:07:38;28.70;99.90
6843;DHT22;3460;52.028;8.916;2022-08-16T12:10:06;28.60;99.90
6843;DHT22;3460;52.028;8.916;2022-08-16T12:12:33;28.60;99.90
6843;DHT22;3460;52.028;8.916;2022-08-16T12:15:00;28.60;99.90
6843;DHT22;3460;52.028;8.916;2022-08-16T12:17:29;28.70;99.90
6843;DHT22;3460;52.028;8.916;2022-08-16T12:19:56;28.80;99.90
6843;DHT22;3460;52.028;8.916;2022-08-16T12:22:23;28.70;99.90
6843;DHT22;3460;52.028;8.916;2022-08-16T12:24:50;28.60;99.90
6843;DHT22;3460;52.028;8.916;2022-08-16T12:27:19;28.50;99.90
6843;DHT22;3460;52.028;8.916;2022-08-16T12:29:46;28.60;99.90
6843;DHT22;3460;52.028;8.916;2022-08-16T12:32:13;28.60;99.90
6843;DHT22;3460;52.028;8.916;2022-08-16T12:34:41;28.50;99.90
6843;DHT22;3460;52.028;8.916;2022-08-16T12:37:07;28.60;99.90
6843;DHT22;3460;52.028;8.916;2022-08-16T12:39:34;28.60;99.90
6843;DHT22;3460;52.028;8.916;2022-08-16T12:42:01;28.80;99.90
6843;DHT22;3460;52.028;8.916;2022-08-16T12:44:28;28.80;99.90
6843;DHT22;3460;52.028;8.916;2022-08-16T12:46:55;28.90;99.90
6843;DHT22;3460;52.028;8.916;2022-08-16T12:49:41;29.10;99.90
6843;DHT22;3460;52.028;8.916;2022-08-16T12:52:07;29.00;99.90
6843;DHT22;3460;52.028;8.916;2022-08-16T12:54:34;29.00;99.90
6843;DHT22;3460;52.028;8.916;2022-08-16T12:57:01;28.90;99.90
6843;DHT22;3460;52.028;8.916;2022-08-16T12:59:28;29.10;99.90
6843;DHT22;3460;52.028;8.916;2022-08-16T13:01:55;29.10;99.90
6843;DHT22;3460;52.028;8.916;2022-08-16T13:04:23;29.20;99.90
6843;DHT22;3460;52.028;8.916;2022-08-16T13:06:51;29.10;99.90
6843;DHT22;3460;52.028;8.916;2022-08-16T13:09:19;29.10;99.90
6843;DHT22;3460;52.028;8.916;2022-08-16T13:11:57;29.10;99.90
6843;DHT22;3460;52.028;8.916;2022-08-16T13:14:28;28.90;99.90
6843;DHT22;3460;52.028;8.916;2022-08-16T13:16:57;28.80;99.90
6843;DHT22;3460;52.028;8.916;2022-08-16T13:19:24;28.70;99.90
6843;DHT22;3460;52.028;8.916;2022-08-16T13:21:52;28.50;99.90
6843;DHT22;3460;52.028;8.916;2022-08-16T13:24:19;28.40;99.90
6843;DHT22;3460;52.028;8.916;2022-08-16T13:26:45;28.10;99.90
6843;DHT22;3460;52.028;8.916;2022-08-16T13:29:12;28.10;99.90
6843;DHT22;3460;52.028;8.916;2022-08-16T13:31:39;28.20;99.90
6843;DHT22;3460;52.028;8.916;2022-08-16T13:34:05;28.10;99.90
6843;DHT22;3460;52.028;8.916;2022-08-16T13:36:32;28.20;99.90
6843;DHT22;3460;52.028;8.916;2022-08-16T13:39:00;28.20;99.90
6843;DHT22;3460;52.028;8.916;2022-08-16T13:41:28;28.10;99.90
6843;DHT22;3460;52.028;8.916;2022-08-16T13:43:55;28.10;99.90
6843;DHT22;3460;52.028;8.916;2022-08-16T13:46:22;28.30;99.90
6843;DHT22;3460;52.028;8.916;2022-08-16T13:48:48;28.50;99.90
6843;DHT22;3460;52.028;8.916;2022-08-16T13:51:17;28.70;99.90
6843;DHT22;3460;52.028;8.916;2022-08-16T13:53:44;28.80;99.90
6843;DHT22;3460;52.028;8.916;2022-08-16T13:56:12;29.00;99.90
6843;DHT22;3460;52.028;8.916;2022-08-16T13:58:39;29.10;99.90
6843;DHT22;3460;52.028;8.916;2022-08-16T14:01:06;29.10;99.90
6843;DHT22;3460;52.028;8.916;2022-08-16T14:03:32;29.10;99.90
6843;DHT22;3460;52.028;8.916;2022-08-16T14:05:59;29.10;99.90
6843;DHT22;3460;52.028;8.916;2022-08-16T14:08:26;29.10;99.90
6843;DHT22;3460;52.028;8.916;2022-08-16T14:10:53;29.10;99.90
6843;DHT22;3460;52.028;8.916;2022-08-16T14:13:21;29.10;99.90
6843;DHT22;3460;52.028;8.916;2022-08-16T14:15:48;29.10;99.90
6843;DHT22;3460;52.028;8.916;2022-08-16T14:18:15;29.10;99.90
6843;DHT22;3460;52.028;8.916;2022-08-16T14:20:41;28.90;99.90
6843;DHT22;3460;52.028;8.916;2022-08-16T14:23:08;28.80;99.90
6843;DHT22;3460;52.028;8.916;2022-08-16T14:25:35;28.80;99.90
6843;DHT22;3460;52.028;8.916;2022-08-16T14:28:02;28.90;99.90
6843;DHT22;3460;52.028;8.916;2022-08-16T14:30:30;29.00;99.90
6843;DHT22;3460;52.028;8.916;2022-08-16T14:32:57;29.00;99.90
6843;DHT22;3460;52.028;8.916;2022-08-16T14:35:27;29.10;99.90
6843;DHT22;3460;52.028;8.916;2022-08-16T14:37:55;29.20;99.90
6843;DHT22;3460;52.028;8.916;2022-08-16T14:40:22;29.40;99.90
6843;DHT22;3460;52.028;8.916;2022-08-16T14:42:49;29.50;99.90
6843;DHT22;3460;52.028;8.916;2022-08-16T14:45:19;29.60;99.90
6843;DHT22;3460;52.028;8.916;2022-08-16T14:47:48;29.80;99.90
6843;DHT22;3460;52.028;8.916;2022-08-16T14:50:17;29.90;99.90
6843;DHT22;3460;52.028;8.916;2022-08-16T14:52:46;30.00;99.90
6843;DHT22;3460;52.028;8.916;2022-08-16T14:55:13;30.00;99.90
6843;DHT22;3460;52.028;8.916;2022-08-16T14:57:41;30.00;99.90
6843;DHT22;3460;52.028;8.916;2022-08-16T15:00:10;30.10;99.90
6843;DHT22;3460;52.028;8.916;2022-08-16T15:02:38;30.00;99.90
6843;DHT22;3460;52.028;8.916;2022-08-16T15:05:09;30.00;99.90
6843;DHT22;3460;52.028;8.916;2022-08-16T15:07:36;30.00;99.90
6843;DHT22;3460;52.028;8.916;2022-08-16T15:10:04;30.00;99.90
6843;DHT22;3460;52.028;8.916;2022-08-16T15:12:31;30.00;99.90
6843;DHT22;3460;52.028;8.916;2022-08-16T15:14:58;30.10;99.90
6843;DHT22;3460;52.028;8.916;2022-08-16T15:17:25;30.10;99.90
6843;DHT22;3460;52.028;8.916;2022-08-16T15:19:53;30.00;99.90
6843;DHT22;3460;52.028;8.916;2022-08-16T15:22:25;30.20;99.90
6843;DHT22;3460;52.028;8.916;2022-08-16T15:24:56;29.70;99.90
6843;DHT22;3460;52.028;8.916;2022-08-16T15:27:24;29.40;99.90
6843;DHT22;3460;52.028;8.916;2022-08-16T15:29:51;29.50;99.90
6843;DHT22;3460;52.028;8.916;2022-08-16T15:32:17;29.40;99.90
6843;DHT22;3460;52.028;8.916;2022-08-16T15:34:44;29.40;99.90
6843;DHT22;3460;52.028;8.916;2022-08-16T15:37:11;29.40;99.90
6843;DHT22;3460;52.028;8.916;2022-08-16T15:39:39;29.40;99.90
6843;DHT22;3460;52.028;8.916;2022-08-16T15:42:07;29.40;99.90
6843;DHT22;3460;52.028;8.916;2022-08-16T15:44:34;29.50;99.90
6843;DHT22;3460;52.028;8.916;2022-08-16T15:47:03;29.40;99.90
6843;DHT22;3460;52.028;8.916;2022-08-16T15:49:32;29.40;99.90
6843;DHT22;3460;52.028;8.916;2022-08-16T15:52:03;29.30;99.90
6843;DHT22;3460;52.028;8.916;2022-08-16T15:54:30;29.20;99.90
6843;DHT22;3460;52.028;8.916;2022-08-16T15:56:58;29.10;99.90
6843;DHT22;3460;52.028;8.916;2022-08-16T15:59:25;29.20;99.90
6843;DHT22;3460;52.028;8.916;2022-08-16T16:01:53;29.10;99.90
6843;DHT22;3460;52.028;8.916;2022-08-16T16:04:20;29.00;99.90